createdAt,value
2019-04-21T00:01:48.424Z,7.38
2019-04-21T00:04:29.641Z,7.34
2019-04-21T00:07:15.958Z,7.28
2019-04-21T00:12:22.844Z,7.21
2019-04-21T00:14:51.000Z,7.18
2019-04-21T00:17:21.705Z,7.12
2019-04-21T00:20:05.520Z,7.06
2019-04-21T00:22:43.147Z,6.99
2019-04-21T00:25:20.673Z,6.90
2019-04-21T00:27:57.698Z,6.82
2019-04-21T00:30:34.068Z,6.70
2019-04-21T00:32:59.776Z,6.62
2019-04-21T00:35:26.499Z,6.50
2019-04-21T00:38:19.603Z,6.40
2019-04-21T00:40:53.809Z,6.23
2019-04-21T00:43:23.385Z,6.13
2019-04-21T00:45:55.566Z,6.07
2019-04-21T00:48:43.977Z,6.04
2019-04-21T00:51:34.362Z,6.00
2019-04-21T00:54:12.909Z,5.97
2019-04-21T00:56:41.383Z,5.87
2019-04-21T00:59:13.988Z,5.80
2019-04-21T01:01:46.235Z,5.78
2019-04-21T01:04:18.171Z,5.73
2019-04-21T01:07:02.880Z,5.70
2019-04-21T01:09:29.082Z,5.64
2019-04-21T01:12:07.804Z,5.61
2019-04-21T01:14:49.970Z,5.53
2019-04-21T01:17:20.251Z,5.51
2019-04-21T01:19:45.901Z,5.53
2019-04-21T01:22:07.525Z,5.48
2019-04-21T01:24:43.859Z,5.44
2019-04-21T01:27:25.073Z,5.36
2019-04-21T01:30:14.140Z,5.38
2019-04-21T01:32:49.741Z,5.36
2019-04-21T01:35:21.046Z,5.29
2019-04-21T01:37:57.169Z,5.25
2019-04-21T01:40:41.056Z,5.20
2019-04-21T01:43:06.114Z,5.12
2019-04-21T01:45:44.771Z,5.05
2019-04-21T01:48:12.951Z,4.99
2019-04-21T01:50:51.589Z,5.02
2019-04-21T01:53:48.866Z,5.04
2019-04-21T01:56:17.253Z,5.02
2019-04-21T01:58:42.563Z,4.96
2019-04-21T02:01:29.747Z,5.02
2019-04-21T02:04:00.119Z,5.10
2019-04-21T02:06:39.033Z,5.17
2019-04-21T02:09:13.634Z,5.17
2019-04-21T02:11:50.866Z,5.23
2019-04-21T02:14:31.753Z,5.19
2019-04-21T02:16:59.269Z,5.08
2019-04-21T02:19:28.448Z,5.02
2019-04-21T02:22:02.381Z,4.95
2019-04-21T02:24:49.902Z,4.91
2019-04-21T02:27:21.848Z,4.84
2019-04-21T02:29:59.820Z,4.80
2019-04-21T02:32:43.795Z,4.76
2019-04-21T02:35:25.199Z,4.65
2019-04-21T02:37:55.483Z,4.60
2019-04-21T02:40:35.790Z,4.57
2019-04-21T02:45:43.412Z,4.47
2019-04-21T02:48:08.734Z,4.37
2019-04-21T02:50:52.930Z,4.36
2019-04-21T02:53:30.212Z,4.37
2019-04-21T02:55:50.868Z,4.34
2019-04-21T02:58:34.391Z,4.35
2019-04-21T03:01:21.241Z,4.34
2019-04-21T03:03:43.663Z,4.30
2019-04-21T03:06:47.288Z,4.29
2019-04-21T03:11:53.407Z,4.18
2019-04-21T03:14:31.507Z,4.15
2019-04-21T03:16:47.179Z,4.13
2019-04-21T03:19:41.667Z,4.09
2019-04-21T03:22:12.839Z,4.06
2019-04-21T03:24:54.030Z,4.00
2019-04-21T03:29:57.129Z,3.90
2019-04-21T03:35:37.776Z,3.91
2019-04-21T03:40:07.215Z,3.95
2019-04-21T03:42:48.122Z,3.99
2019-04-21T03:45:23.667Z,4.08
2019-04-21T03:47:53.547Z,4.06
2019-04-21T03:50:27.898Z,4.00
2019-04-21T03:53:03.021Z,3.99
2019-04-21T03:58:41.909Z,4.01
2019-04-21T04:03:53.371Z,4.21
2019-04-21T04:09:21.254Z,4.28
2019-04-21T04:14:31.073Z,4.28
2019-04-21T04:17:07.535Z,4.33
2019-04-21T04:19:45.370Z,4.42
2019-04-21T04:22:15.305Z,4.54
2019-04-21T04:27:36.909Z,4.57
2019-04-21T04:29:53.033Z,4.67
2019-04-21T04:32:28.771Z,4.85
2019-04-21T04:50:49.466Z,5.51
2019-04-21T04:56:00.941Z,5.90
2019-04-21T04:58:53.129Z,6.05
2019-04-21T05:01:16.919Z,6.18
2019-04-21T05:03:52.424Z,6.33
2019-04-21T05:11:44.272Z,7.14
2019-04-21T05:19:16.364Z,7.84
2019-04-21T05:21:45.580Z,8.04
2019-04-21T05:24:20.908Z,8.26
2019-04-21T05:26:49.313Z,8.45
2019-04-21T05:29:20.797Z,8.72
2019-04-21T05:32:09.280Z,8.86
2019-04-21T05:34:36.073Z,9.08
2019-04-21T05:37:14.195Z,9.21
2019-04-21T05:39:51.102Z,9.38
2019-04-21T05:42:23.830Z,9.58
2019-04-21T05:45:10.501Z,9.77
2019-04-21T05:47:46.342Z,10.00
2019-04-21T05:50:12.373Z,10.20
2019-04-21T05:52:53.507Z,10.42
2019-04-21T05:55:36.041Z,10.60
2019-04-21T05:58:03.946Z,10.75
2019-04-21T06:00:59.296Z,10.97
2019-04-21T06:03:32.326Z,11.10
2019-04-21T06:06:05.412Z,11.23
2019-04-21T06:08:29.746Z,11.39
2019-04-21T06:11:02.086Z,11.62
2019-04-21T06:13:43.886Z,11.77
2019-04-21T06:16:30.169Z,11.86
2019-04-21T06:18:56.147Z,12.03
2019-04-21T06:21:25.110Z,12.07
2019-04-21T06:24:00.580Z,12.16
2019-04-21T06:26:51.772Z,12.26
2019-04-21T06:29:02.744Z,12.44
2019-04-21T06:32:12.732Z,12.41
2019-04-21T06:34:16.587Z,12.21
2019-04-21T06:37:04.349Z,12.34
2019-04-21T06:39:44.782Z,12.51
2019-04-21T06:42:10.882Z,12.87
2019-04-21T06:44:51.599Z,13.02
2019-04-21T06:47:28.835Z,12.90
2019-04-21T06:49:55.585Z,13.03
2019-04-21T06:52:52.190Z,13.29
2019-04-21T06:57:40.284Z,13.76
2019-04-21T07:00:12.174Z,13.92
2019-04-21T07:02:51.906Z,13.98
2019-04-21T07:08:19.698Z,14.23
2019-04-21T07:10:33.926Z,14.48
2019-04-21T07:13:03.195Z,14.83
2019-04-21T07:15:43.614Z,14.92
2019-04-21T07:18:12.393Z,15.04
2019-04-21T07:20:56.594Z,14.99
2019-04-21T07:23:24.065Z,15.16
2019-04-21T07:26:05.700Z,15.28
2019-04-21T07:28:40.449Z,15.58
2019-04-21T07:31:09.951Z,15.90
2019-04-21T07:33:53.902Z,15.92
2019-04-21T07:36:22.079Z,15.98
2019-04-21T07:38:49.846Z,15.94
2019-04-21T07:41:18.401Z,15.99
2019-04-21T07:44:00.163Z,16.34
2019-04-21T07:46:29.044Z,16.67
2019-04-21T07:49:15.537Z,16.80
2019-04-21T07:52:01.420Z,17.09
2019-04-21T07:54:44.367Z,16.99
2019-04-21T07:56:52.421Z,16.83
2019-04-21T07:59:52.395Z,16.62
2019-04-21T08:02:10.492Z,16.44
2019-04-21T08:05:02.371Z,17.04
2019-04-21T08:10:26.273Z,17.13
2019-04-21T08:13:14.826Z,17.31
2019-04-21T08:15:44.644Z,17.58
2019-04-21T08:21:44.681Z,18.07
2019-04-21T08:28:15.863Z,17.93
2019-04-21T08:35:34.288Z,18.47
2019-04-21T09:01:33.019Z,19.29
2019-04-21T09:04:19.914Z,19.95
2019-04-21T09:09:35.262Z,20.28
2019-04-21T09:12:10.620Z,20.36
2019-04-21T09:14:48.780Z,20.23
2019-04-21T09:17:15.329Z,20.14
2019-04-21T09:19:58.066Z,20.38
2019-04-21T09:22:38.234Z,20.65
2019-04-21T09:25:17.989Z,20.16
2019-04-21T09:27:46.780Z,19.27
2019-04-21T09:30:08.915Z,20.06
2019-04-21T09:32:42.461Z,20.37
2019-04-21T09:35:18.352Z,20.66
2019-04-21T09:38:00.332Z,20.86
2019-04-21T09:40:34.033Z,20.71
2019-04-21T09:43:09.428Z,20.43
2019-04-21T09:45:37.749Z,20.69
2019-04-21T09:48:17.086Z,21.03
2019-04-21T09:50:47.922Z,20.77
2019-04-21T09:53:29.201Z,21.11
2019-04-21T09:55:59.786Z,20.82
2019-04-21T09:58:37.888Z,19.93
2019-04-21T10:01:16.745Z,20.38
2019-04-21T10:03:46.467Z,20.32
2019-04-21T10:06:17.368Z,20.70
2019-04-21T10:08:57.479Z,20.83
2019-04-21T10:11:25.236Z,21.41
2019-04-21T10:13:58.871Z,21.23
2019-04-21T10:16:32.115Z,21.67
2019-04-21T10:19:04.939Z,22.32
2019-04-21T10:21:38.306Z,22.17
2019-04-21T10:24:12.511Z,21.74
2019-04-21T10:26:45.307Z,21.66
2019-04-21T10:29:24.242Z,21.67
2019-04-21T10:31:52.930Z,21.25
2019-04-21T10:34:25.608Z,22.00
2019-04-21T10:36:58.886Z,22.55
2019-04-21T10:39:31.678Z,22.67
2019-04-21T10:42:05.584Z,23.19
2019-04-21T10:44:39.075Z,22.81
2019-04-21T10:47:13.070Z,22.72
2019-04-21T10:49:46.723Z,22.77
2019-04-21T10:52:22.750Z,22.36
2019-04-21T10:55:23.071Z,22.50
2019-04-21T10:57:34.902Z,22.36
2019-04-21T11:00:12.011Z,22.54
2019-04-21T11:02:48.908Z,21.48
2019-04-21T11:05:22.730Z,22.28
2019-04-21T11:08:08.910Z,22.74
2019-04-21T11:10:32.047Z,22.84
2019-04-21T11:13:05.474Z,22.68
2019-04-21T11:15:39.181Z,22.82
2019-04-21T11:18:12.780Z,23.28
2019-04-21T11:20:46.939Z,23.56
2019-04-21T11:23:22.398Z,23.40
2019-04-21T11:25:54.305Z,23.43
2019-04-21T11:28:27.278Z,22.85
2019-04-21T11:31:00.603Z,22.75
2019-04-21T11:33:33.489Z,23.21
2019-04-21T11:36:07.013Z,23.51
2019-04-21T11:39:01.072Z,23.27
2019-04-21T11:41:19.138Z,23.06
2019-04-21T11:43:53.131Z,23.36
2019-04-21T11:46:26.835Z,23.59
2019-04-21T11:49:00.085Z,23.98
2019-04-21T11:51:33.316Z,23.27
2019-04-21T11:54:06.976Z,23.24
2019-04-21T11:56:40.990Z,23.03
2019-04-21T11:59:15.554Z,23.68
2019-04-21T12:01:49.773Z,23.88
2019-04-21T12:04:23.454Z,23.96
2019-04-21T12:06:57.744Z,24.50
2019-04-21T12:09:33.332Z,25.12
2019-04-21T12:12:07.423Z,25.30
2019-04-21T12:14:41.823Z,24.73
2019-04-21T12:17:16.325Z,24.47
2019-04-21T12:19:50.653Z,24.43
2019-04-21T12:22:28.134Z,24.80
2019-04-21T12:24:57.828Z,24.76
2019-04-21T12:27:31.891Z,24.59
2019-04-21T12:30:07.825Z,24.39
2019-04-21T12:32:55.970Z,24.62
2019-04-21T12:35:30.073Z,24.86
2019-04-21T12:38:03.011Z,25.58
2019-04-21T12:40:36.702Z,25.33
2019-04-21T12:43:10.590Z,25.53
2019-04-21T12:45:45.996Z,25.81
2019-04-21T12:48:20.096Z,25.26
2019-04-21T12:50:54.233Z,25.20
2019-04-21T12:53:27.689Z,24.97
2019-04-21T12:56:01.998Z,25.50
2019-04-21T12:58:35.266Z,26.63
2019-04-21T13:01:09.486Z,25.71
2019-04-21T13:03:42.146Z,25.21
2019-04-21T13:06:15.868Z,25.78
2019-04-21T13:08:55.652Z,25.71
2019-04-21T13:11:25.413Z,25.30
2019-04-21T13:13:59.857Z,25.66
2019-04-21T13:16:33.697Z,25.96
2019-04-21T13:19:07.211Z,26.66
2019-04-21T13:21:40.340Z,25.90
2019-04-21T13:24:14.114Z,25.44
2019-04-21T13:26:53.626Z,25.98
2019-04-21T13:29:21.581Z,26.33
2019-04-21T13:31:54.438Z,26.33
2019-04-21T13:34:28.207Z,26.29
2019-04-21T13:37:01.605Z,26.68
2019-04-21T13:40:03.461Z,26.31
2019-04-21T13:42:23.966Z,26.28
2019-04-21T13:44:50.991Z,26.75
2019-04-21T13:47:24.834Z,27.02
2019-04-21T13:49:59.885Z,28.64
2019-04-21T13:52:33.097Z,28.64
2019-04-21T13:55:09.616Z,28.58
2019-04-21T13:57:42.409Z,28.21
2019-04-21T14:00:17.257Z,27.37
2019-04-21T14:02:50.323Z,27.51
2019-04-21T14:05:24.430Z,27.35
2019-04-21T14:07:58.035Z,27.43
2019-04-21T14:10:31.465Z,27.78
2019-04-21T14:13:04.701Z,28.33
2019-04-21T14:15:37.903Z,28.73
2019-04-21T14:18:11.018Z,28.79
2019-04-21T14:20:44.969Z,28.29
2019-04-21T14:23:25.621Z,28.22
2019-04-21T14:25:53.274Z,29.01
2019-04-21T14:28:28.223Z,29.03
2019-04-21T14:31:02.234Z,29.13
2019-04-21T14:33:36.133Z,28.62
2019-04-21T14:36:08.894Z,28.40
2019-04-21T14:38:42.681Z,29.78
2019-04-21T14:41:15.363Z,31.26
2019-04-21T14:43:48.120Z,30.04
2019-04-21T14:46:29.149Z,30.94
2019-04-21T14:49:01.493Z,29.80
2019-04-21T14:51:41.339Z,28.40
2019-04-21T14:54:17.263Z,29.06
2019-04-21T14:56:51.277Z,29.35
2019-04-21T14:59:24.796Z,29.94
2019-04-21T15:01:58.295Z,29.39
2019-04-21T15:04:31.564Z,30.27
2019-04-21T15:07:05.599Z,31.42
2019-04-21T15:09:41.098Z,31.01
2019-04-21T15:12:16.087Z,31.55
2019-04-21T15:14:49.840Z,31.72
2019-04-21T15:17:24.383Z,31.01
2019-04-21T15:20:04.024Z,31.60
2019-04-21T15:22:32.335Z,31.22
2019-04-21T15:25:08.015Z,30.98
2019-04-21T15:27:41.174Z,30.74
2019-04-21T15:30:14.568Z,29.94
2019-04-21T15:32:48.457Z,29.24
2019-04-21T15:35:22.490Z,30.14
2019-04-21T15:37:55.909Z,30.29
2019-04-21T15:40:40.044Z,29.74
2019-04-21T15:43:06.529Z,29.63
2019-04-21T15:45:39.549Z,29.65
2019-04-21T15:48:12.230Z,30.36
2019-04-21T15:50:45.915Z,30.61
2019-04-21T15:53:23.869Z,29.10
2019-04-21T15:56:04.634Z,28.89
2019-04-21T15:58:39.124Z,28.51
2019-04-21T16:01:14.499Z,28.63
2019-04-21T16:03:47.251Z,28.04
2019-04-21T16:06:21.470Z,28.52
2019-04-21T16:08:57.393Z,28.83
2019-04-21T16:11:29.190Z,29.09
2019-04-21T16:14:01.943Z,28.87
2019-04-21T16:16:36.047Z,27.92
2019-04-21T16:19:10.082Z,27.69
2019-04-21T16:21:46.303Z,28.50
2019-04-21T16:24:18.413Z,29.33
2019-04-21T16:26:52.866Z,28.45
2019-04-21T16:29:27.035Z,28.11
2019-04-21T16:32:01.583Z,28.20
2019-04-21T16:34:44.673Z,28.50
2019-04-21T16:37:09.785Z,28.18
2019-04-21T16:39:43.652Z,28.90
2019-04-21T16:42:18.222Z,28.64
2019-04-21T16:44:52.782Z,28.25
2019-04-21T16:47:26.199Z,27.93
2019-04-21T16:50:01.582Z,27.65
2019-04-21T16:52:38.364Z,27.05
2019-04-21T16:55:23.187Z,27.25
2019-04-21T16:58:04.257Z,27.04
2019-04-21T17:00:41.842Z,27.25
2019-04-21T17:03:06.793Z,27.22
2019-04-21T17:05:40.365Z,25.68
2019-04-21T17:08:13.728Z,25.68
2019-04-21T17:11:00.388Z,23.13
2019-04-21T17:13:22.255Z,22.35
2019-04-21T17:16:15.338Z,21.86
2019-04-21T17:18:43.630Z,21.54
2019-04-21T17:21:05.160Z,21.15
2019-04-21T17:23:37.859Z,20.83
2019-04-21T17:26:10.987Z,20.51
2019-04-21T17:28:44.934Z,20.16
2019-04-21T17:31:18.228Z,19.91
2019-04-21T17:33:59.663Z,19.61
2019-04-21T17:36:27.248Z,19.38
2019-04-21T17:39:00.208Z,19.13
2019-04-21T17:41:39.997Z,18.83
2019-04-21T17:44:08.863Z,18.62
2019-04-21T17:46:49.988Z,18.48
2019-04-21T17:49:16.986Z,18.40
2019-04-21T17:51:55.187Z,18.12
2019-04-21T17:54:35.749Z,18.04
2019-04-21T17:57:29.233Z,17.77
2019-04-21T18:00:13.955Z,17.62
2019-04-21T18:02:36.730Z,17.42
2019-04-21T18:05:13.290Z,17.31
2019-04-21T18:07:55.993Z,17.08
2019-04-21T18:10:12.610Z,16.86
2019-04-21T18:12:43.081Z,16.69
2019-04-21T18:15:22.115Z,16.45
2019-04-21T18:17:42.752Z,16.21
2019-04-21T18:20:19.612Z,15.90
2019-04-21T18:22:54.631Z,15.78
2019-04-21T18:25:39.757Z,15.66
2019-04-21T18:28:02.950Z,15.77
2019-04-21T18:30:56.552Z,15.82
2019-04-21T18:33:33.897Z,15.88
2019-04-21T18:36:13.447Z,15.86
2019-04-21T18:39:04.471Z,15.84
2019-04-21T18:41:34.149Z,15.77
2019-04-21T18:44:36.488Z,15.68
2019-04-21T18:47:09.057Z,15.62
2019-04-21T18:49:39.052Z,15.56
2019-04-21T18:52:32.261Z,15.54
2019-04-21T18:55:09.438Z,15.50
2019-04-21T18:57:37.422Z,15.44
2019-04-21T19:00:15.352Z,15.39
2019-04-21T19:02:45.642Z,15.34
2019-04-21T19:05:17.637Z,15.26
2019-04-21T19:08:03.967Z,15.18
2019-04-21T19:10:39.640Z,15.11
2019-04-21T19:16:17.352Z,14.93
2019-04-21T19:18:40.170Z,14.80
2019-04-21T19:20:54.235Z,14.72
2019-04-21T19:23:45.591Z,14.69
2019-04-21T19:26:15.080Z,14.63
2019-04-21T19:28:47.549Z,14.56
2019-04-21T19:31:28.277Z,14.48
2019-04-21T19:33:45.537Z,14.44
2019-04-21T19:36:09.200Z,14.45
2019-04-21T19:38:51.626Z,14.44
2019-04-21T19:41:32.468Z,14.41
2019-04-21T19:44:06.473Z,14.44
2019-04-21T19:46:39.523Z,14.42
2019-04-21T19:49:21.180Z,14.39
2019-04-21T19:51:46.181Z,14.37
2019-04-21T19:54:20.211Z,14.26
2019-04-21T19:56:43.034Z,14.10
2019-04-21T19:59:19.970Z,14.14
2019-04-21T20:01:51.344Z,14.03
2019-04-21T20:04:31.707Z,13.92
2019-04-21T20:07:15.586Z,13.81
2019-04-21T20:09:50.424Z,13.76
2019-04-21T20:12:34.222Z,13.77
2019-04-21T20:15:08.156Z,13.73
2019-04-21T20:17:35.126Z,13.69
2019-04-21T20:19:50.303Z,13.64
2019-04-21T20:22:30.015Z,13.62
2019-04-21T20:25:05.928Z,13.58
2019-04-21T20:27:42.986Z,13.54
2019-04-21T20:30:27.198Z,13.44
2019-04-21T20:33:05.832Z,13.42
2019-04-21T20:35:46.539Z,13.36
2019-04-21T20:38:09.350Z,13.32
2019-04-21T20:40:39.007Z,13.31
2019-04-21T20:43:38.193Z,13.28
2019-04-21T20:46:00.858Z,13.25
2019-04-21T20:48:20.017Z,13.20
2019-04-21T20:51:06.424Z,13.20
2019-04-21T20:53:37.979Z,13.08
2019-04-21T20:56:05.026Z,13.04
2019-04-21T20:58:48.263Z,12.97
2019-04-21T21:03:51.785Z,12.91
2019-04-21T21:06:26.329Z,12.93
2019-04-21T21:09:03.539Z,12.89
2019-04-21T21:11:36.982Z,12.83
2019-04-21T21:14:11.721Z,12.79
2019-04-21T21:16:50.396Z,12.71
2019-04-21T21:19:26.747Z,12.68
2019-04-21T21:21:53.518Z,12.65
2019-04-21T21:24:36.392Z,12.63
2019-04-21T21:27:02.051Z,12.65
2019-04-21T21:29:33.522Z,12.63
2019-04-21T21:32:16.259Z,12.61
2019-04-21T21:34:45.510Z,12.59
2019-04-21T21:37:32.189Z,12.51
2019-04-21T21:39:57.126Z,12.51
2019-04-21T21:42:13.875Z,12.53
2019-04-21T21:44:54.558Z,12.43
2019-04-21T21:47:44.752Z,12.38
2019-04-21T21:50:07.351Z,12.34
2019-04-21T21:52:46.516Z,12.20
2019-04-21T21:55:05.723Z,12.11
2019-04-21T21:57:43.013Z,12.03
2019-04-21T22:00:15.300Z,11.90
2019-04-21T22:02:53.456Z,11.77
2019-04-21T22:05:29.165Z,11.70
2019-04-21T22:08:00.533Z,11.57
2019-04-21T22:10:34.859Z,11.46
2019-04-21T22:13:12.806Z,11.37
2019-04-21T22:15:43.587Z,11.29
2019-04-21T22:18:36.234Z,11.19
2019-04-21T22:21:02.219Z,11.07
2019-04-21T22:23:36.913Z,10.97
2019-04-21T22:25:59.140Z,10.82
2019-04-21T22:28:31.912Z,10.74
2019-04-21T22:31:08.162Z,10.75
2019-04-21T22:33:47.849Z,10.76
2019-04-21T22:36:26.479Z,10.75
2019-04-21T22:39:09.277Z,10.72
2019-04-21T22:41:30.967Z,10.64
2019-04-21T22:43:58.960Z,10.64
2019-04-21T22:46:32.596Z,10.57
2019-04-21T22:49:09.359Z,10.50
2019-04-21T22:51:45.975Z,10.49
2019-04-21T22:54:22.169Z,10.44
2019-04-21T22:56:58.547Z,10.43
2019-04-21T22:59:26.123Z,10.38
2019-04-21T23:01:59.417Z,10.29
2019-04-21T23:04:39.561Z,10.25
2019-04-21T23:07:13.562Z,10.16
2019-04-21T23:09:45.400Z,10.03
2019-04-21T23:12:20.424Z,9.88
2019-04-21T23:15:01.895Z,9.83
2019-04-21T23:17:48.231Z,9.76
2019-04-21T23:20:22.442Z,9.67
2019-04-21T23:23:01.992Z,9.56
2019-04-21T23:25:26.240Z,9.43
2019-04-21T23:28:03.056Z,9.38
2019-04-21T23:30:45.775Z,9.27
2019-04-21T23:33:02.395Z,9.24
2019-04-21T23:35:35.288Z,9.14
2019-04-21T23:38:06.543Z,9.01
2019-04-21T23:40:41.894Z,8.97
2019-04-21T23:43:18.784Z,8.85
2019-04-21T23:45:47.955Z,8.80
2019-04-21T23:48:32.475Z,8.70
2019-04-21T23:51:10.915Z,8.61
2019-04-21T23:53:31.135Z,8.49
2019-04-21T23:56:03.835Z,8.45
2019-04-21T23:58:39.910Z,8.41
